createdAt,value
2022-08-04T00:00:01.663Z,100552.56
2022-08-04T00:03:02.966Z,100552.33
2022-08-04T00:05:40.072Z,100552.73
2022-08-04T00:08:50.038Z,100555.05
2022-08-04T00:11:23.386Z,100551.56
2022-08-04T00:14:02.827Z,100553.48
2022-08-04T00:16:38.343Z,100552.97
2022-08-04T00:19:17.617Z,100553.92
2022-08-04T00:22:01.048Z,100552.52
2022-08-04T00:24:30.551Z,100554.44
2022-08-04T00:26:58.417Z,100554.26
2022-08-04T00:29:27.636Z,100551.39
2022-08-04T00:31:57.867Z,100556.25
2022-08-04T00:34:28.158Z,100556.36
2022-08-04T00:36:57.160Z,100554.58
2022-08-04T00:39:25.977Z,100554.29
2022-08-04T00:41:57.091Z,100559.66
2022-08-04T00:44:54.035Z,100555.36
2022-08-04T00:47:30.509Z,100556.90
2022-08-04T00:50:07.585Z,100555.21
2022-08-04T00:52:47.477Z,100554.96
2022-08-04T00:55:34.090Z,100553.69
2022-08-04T00:58:26.547Z,100556.01
2022-08-04T01:01:07.184Z,100557.91
2022-08-04T01:04:03.833Z,100555.79
2022-08-04T01:06:38.238Z,100556.92
2022-08-04T01:09:23.433Z,100559.70
2022-08-04T01:12:35.886Z,100558.18
2022-08-04T01:15:14.814Z,100558.36
2022-08-04T01:18:00.370Z,100561.79
2022-08-04T01:20:34.520Z,100566.66
2022-08-04T01:23:27.067Z,100567.89
2022-08-04T01:26:43.538Z,100569.75
2022-08-04T01:29:16.953Z,100572.04
2022-08-04T01:32:06.902Z,100569.94
2022-08-04T01:34:37.265Z,100571.94
2022-08-04T01:37:11.006Z,100575.66
2022-08-04T01:39:49.883Z,100573.88
2022-08-04T01:42:31.304Z,100577.56
2022-08-04T01:45:07.115Z,100575.80
2022-08-04T01:47:36.626Z,100571.27
2022-08-04T01:50:10.379Z,100570.83
2022-08-04T01:52:39.910Z,100567.13
2022-08-04T01:55:10.353Z,100567.08
2022-08-04T01:57:43.068Z,100568.08
2022-08-04T02:00:12.932Z,100567.52
2022-08-04T02:02:41.279Z,100566.60
2022-08-04T02:05:11.791Z,100563.58
2022-08-04T02:08:04.426Z,100562.07
2022-08-04T02:10:59.930Z,100561.08
2022-08-04T02:13:36.644Z,100563.08
2022-08-04T02:16:31.594Z,100565.59
2022-08-04T02:19:08.268Z,100558.21
2022-08-04T02:21:45.428Z,100560.89
2022-08-04T02:24:15.604Z,100555.19
2022-08-04T02:26:48.769Z,100551.39
2022-08-04T02:29:21.616Z,100554.08
2022-08-04T02:32:24.018Z,100554.77
2022-08-04T02:34:55.366Z,100552.38
2022-08-04T02:37:24.886Z,100552.97
2022-08-04T02:39:54.263Z,100549.83
2022-08-04T02:42:21.942Z,100550.36
2022-08-04T02:44:51.712Z,100551.98
2022-08-04T02:47:21.567Z,100549.03
2022-08-04T02:49:51.385Z,100545.17
2022-08-04T02:52:20.162Z,100549.34
2022-08-04T02:54:52.141Z,100547.83
2022-08-04T02:57:24.506Z,100549.06
2022-08-04T03:00:13.384Z,100550.48
2022-08-04T03:03:03.556Z,100551.77
2022-08-04T03:06:16.114Z,100553.15
2022-08-04T03:09:23.971Z,100553.64
2022-08-04T03:12:19.342Z,100555.35
2022-08-04T03:15:10.285Z,100558.86
2022-08-04T03:17:52.552Z,100557.77
2022-08-04T03:20:45.180Z,100555.16
2022-08-04T03:23:18.785Z,100557.27
2022-08-04T03:26:06.457Z,100553.56
2022-08-04T03:29:33.160Z,100555.27
2022-08-04T03:32:13.639Z,100556.92
2022-08-04T03:35:02.477Z,100559.20
2022-08-04T03:37:53.428Z,100564.05
2022-08-04T03:40:33.623Z,100564.02
2022-08-04T03:43:59.322Z,100567.41
2022-08-04T03:46:21.651Z,100566.93
2022-08-04T03:49:08.853Z,100571.07
2022-08-04T03:52:06.173Z,100571.42
2022-08-04T03:54:39.936Z,100570.04
2022-08-04T03:57:32.547Z,100570.35
2022-08-04T04:00:05.656Z,100573.50
2022-08-04T04:02:45.862Z,100572.72
2022-08-04T04:05:58.800Z,100573.96
2022-08-04T04:08:49.902Z,100580.47
2022-08-04T04:11:29.625Z,100582.80
2022-08-04T04:14:33.624Z,100583.30
2022-08-04T04:17:08.831Z,100582.30
2022-08-04T04:19:59.973Z,100580.61
2022-08-04T04:22:42.715Z,100579.30
2022-08-04T04:25:31.454Z,100583.97
2022-08-04T04:28:44.266Z,100585.92
2022-08-04T04:31:11.905Z,100584.74
2022-08-04T04:33:50.558Z,100586.70
2022-08-04T04:36:49.483Z,100587.91
2022-08-04T04:39:33.369Z,100586.94
2022-08-04T04:42:18.387Z,100590.04
2022-08-04T04:45:25.966Z,100592.75
2022-08-04T04:48:12.347Z,100593.84
2022-08-04T04:51:05.545Z,100593.48
2022-08-04T04:53:48.261Z,100595.06
2022-08-04T04:56:29.622Z,100601.40
2022-08-04T04:58:58.046Z,100600.77
2022-08-04T05:01:38.136Z,100605.77
2022-08-04T05:04:08.836Z,100608.05
2022-08-04T05:06:54.627Z,100605.89
2022-08-04T05:09:52.420Z,100608.47
2022-08-04T05:14:32.264Z,100608.89
2022-08-04T05:15:15.472Z,100603.58
2022-08-04T05:17:50.448Z,100605.65
2022-08-04T05:20:24.663Z,100608.52
2022-08-04T05:22:58.268Z,100611.40
2022-08-04T05:25:55.047Z,100608.15
2022-08-04T05:28:34.315Z,100603.64
2022-08-04T05:31:11.257Z,100604.92
2022-08-04T05:33:54.818Z,100604.09
2022-08-04T05:36:41.124Z,100605.15
2022-08-04T05:39:25.371Z,100604.72
2022-08-04T05:41:55.172Z,100608.61
2022-08-04T05:44:25.356Z,100610.33
2022-08-04T05:46:58.183Z,100614.88
2022-08-04T05:49:29.735Z,100621.30
2022-08-04T05:52:01.809Z,100623.00
2022-08-04T05:54:33.735Z,100623.48
2022-08-04T05:57:04.591Z,100622.61
2022-08-04T05:59:35.207Z,100628.02
2022-08-04T06:02:04.887Z,100626.52
2022-08-04T06:04:38.916Z,100630.62
2022-08-04T06:07:07.270Z,100631.17
2022-08-04T06:09:35.308Z,100631.14
2022-08-04T06:12:07.375Z,100629.55
2022-08-04T06:14:46.554Z,100629.80
2022-08-04T06:18:33.262Z,100626.95
2022-08-04T06:20:20.150Z,100635.34
2022-08-04T06:22:54.483Z,100636.79
2022-08-04T06:25:28.526Z,100640.30
2022-08-04T06:27:57.021Z,100638.23
2022-08-04T06:30:27.352Z,100643.16
2022-08-04T06:33:03.368Z,100641.20
2022-08-04T06:35:33.899Z,100637.77
2022-08-04T06:38:03.152Z,100633.73
2022-08-04T06:40:34.102Z,100636.00
2022-08-04T06:43:06.710Z,100640.02
2022-08-04T06:45:37.408Z,100641.86
2022-08-04T06:48:06.844Z,100643.98
2022-08-04T06:51:30.949Z,100641.45
2022-08-04T06:53:25.696Z,100638.60
2022-08-04T06:55:54.605Z,100637.16
2022-08-04T06:58:23.308Z,100637.70
2022-08-04T07:00:51.833Z,100633.55
2022-08-04T07:03:21.628Z,100635.34
2022-08-04T07:05:50.708Z,100636.80
2022-08-04T07:08:19.519Z,100639.40
2022-08-04T07:10:47.863Z,100639.13
2022-08-04T07:13:16.007Z,100639.52
2022-08-04T07:15:45.846Z,100639.27
2022-08-04T07:18:14.003Z,100641.45
2022-08-04T07:20:46.287Z,100641.15
2022-08-04T07:23:17.645Z,100635.75
2022-08-04T07:25:59.422Z,100641.23
2022-08-04T07:28:30.908Z,100646.05
2022-08-04T07:30:59.033Z,100641.73
2022-08-04T07:33:27.829Z,100644.58
2022-08-04T07:36:05.661Z,100645.89
2022-08-04T07:38:48.626Z,100647.73
2022-08-04T07:41:40.689Z,100648.95
2022-08-04T07:44:09.648Z,100646.64
2022-08-04T07:46:37.626Z,100645.80
2022-08-04T07:49:06.109Z,100646.36
2022-08-04T07:51:35.554Z,100646.68
2022-08-04T07:54:05.414Z,100650.02
2022-08-04T07:56:36.574Z,100647.87
2022-08-04T07:59:04.905Z,100645.45
2022-08-04T08:01:35.347Z,100644.98
2022-08-04T08:04:06.609Z,100642.96
2022-08-04T08:06:42.698Z,100646.33
2022-08-04T08:09:16.439Z,100642.48
2022-08-04T08:12:37.270Z,100636.68
2022-08-04T08:14:38.033Z,100640.92
2022-08-04T08:17:05.971Z,100638.30
2022-08-04T08:19:37.033Z,100643.23
2022-08-04T08:22:05.404Z,100636.64
2022-08-04T08:24:37.262Z,100638.40
2022-08-04T08:27:06.899Z,100638.29
2022-08-04T08:29:35.514Z,100639.30
2022-08-04T08:32:08.490Z,100640.28
2022-08-04T08:34:38.860Z,100640.11
2022-08-04T08:37:16.355Z,100638.39
2022-08-04T08:39:52.891Z,100642.10
2022-08-04T08:42:29.760Z,100644.66
2022-08-04T08:45:17.856Z,100640.41
2022-08-04T08:48:13.170Z,100641.88
2022-08-04T08:51:02.168Z,100643.92
2022-08-04T08:53:29.823Z,100642.67
2022-08-04T08:56:32.348Z,100644.98
2022-08-04T08:59:27.385Z,100641.95
2022-08-04T09:02:20.093Z,100639.69
2022-08-04T09:04:53.861Z,100639.70
2022-08-04T09:07:21.969Z,100640.04
2022-08-04T09:10:13.679Z,100641.96
2022-08-04T09:13:05.171Z,100636.33
2022-08-04T09:15:45.643Z,100638.66
2022-08-04T09:18:32.898Z,100635.31
2022-08-04T09:21:06.959Z,100635.59
2022-08-04T09:23:59.107Z,100636.24
2022-08-04T09:26:32.574Z,100638.36
2022-08-04T09:29:18.979Z,100635.73
2022-08-04T09:32:06.951Z,100640.82
2022-08-04T09:35:03.108Z,100640.27
2022-08-04T09:37:58.314Z,100635.29
2022-08-04T09:40:52.706Z,100637.57
2022-08-04T09:44:48.792Z,100631.91
2022-08-04T09:46:55.749Z,100628.74
2022-08-04T09:49:47.849Z,100630.42
2022-08-04T09:52:46.548Z,100632.29
2022-08-04T09:55:53.470Z,100627.23
2022-08-04T09:58:28.885Z,100619.35
2022-08-04T10:01:03.259Z,100613.36
2022-08-04T10:03:35.637Z,100615.59
2022-08-04T10:06:40.676Z,100613.69
2022-08-04T10:09:33.766Z,100616.05
2022-08-04T10:12:01.335Z,100613.70
2022-08-04T10:14:41.495Z,100612.98
2022-08-04T10:17:24.431Z,100609.02
2022-08-04T10:20:07.862Z,100613.88
2022-08-04T10:23:09.216Z,100605.69
2022-08-04T10:26:06.077Z,100604.39
2022-08-04T10:28:31.624Z,100601.33
2022-08-04T10:31:03.725Z,100603.21
2022-08-04T10:33:34.549Z,100598.83
2022-08-04T10:36:06.691Z,100599.46
2022-08-04T10:38:45.240Z,100598.20
2022-08-04T10:41:17.147Z,100595.05
2022-08-04T10:44:24.632Z,100595.31
2022-08-04T10:47:02.099Z,100587.21
2022-08-04T10:49:38.412Z,100583.99
2022-08-04T10:52:17.440Z,100582.21
2022-08-04T10:55:03.820Z,100590.57
2022-08-04T10:57:37.475Z,100588.02
2022-08-04T11:00:12.282Z,100587.81
2022-08-04T11:02:45.418Z,100584.63
2022-08-04T11:05:24.764Z,100578.76
2022-08-04T11:08:10.038Z,100574.77
2022-08-04T11:10:46.150Z,100570.44
2022-08-04T11:13:29.474Z,100572.98
2022-08-04T11:16:03.126Z,100570.14
2022-08-04T11:18:45.764Z,100562.66
2022-08-04T11:21:23.394Z,100558.80
2022-08-04T11:24:03.628Z,100555.57
2022-08-04T11:26:49.036Z,100557.29
2022-08-04T11:29:24.117Z,100560.48
2022-08-04T11:31:52.640Z,100558.94
2022-08-04T11:34:25.310Z,100558.86
2022-08-04T11:37:18.540Z,100559.79
2022-08-04T11:39:52.329Z,100556.61
2022-08-04T11:42:23.784Z,100552.20
2022-08-04T11:45:07.080Z,100556.95
2022-08-04T11:48:07.526Z,100553.77
2022-08-04T11:50:39.450Z,100553.10
2022-08-04T11:53:08.482Z,100552.09
2022-08-04T11:56:06.898Z,100551.75
2022-08-04T11:58:25.327Z,100549.63
2022-08-04T12:00:59.259Z,100546.25
2022-08-04T12:03:45.154Z,100544.92
2022-08-04T12:06:37.479Z,100547.85
2022-08-04T12:09:36.933Z,100541.45
2022-08-04T12:12:17.650Z,100543.51
2022-08-04T12:15:00.098Z,100541.52
2022-08-04T12:17:37.045Z,100545.47
2022-08-04T12:20:34.332Z,100538.31
2022-08-04T12:23:16.094Z,100541.30
2022-08-04T12:25:48.631Z,100538.41
2022-08-04T12:28:41.362Z,100538.33
2022-08-04T12:31:25.437Z,100535.56
2022-08-04T12:34:07.402Z,100536.47
2022-08-04T12:36:56.269Z,100531.28
2022-08-04T12:39:26.241Z,100529.41
2022-08-04T12:42:11.573Z,100531.48
2022-08-04T12:44:41.572Z,100529.50
2022-08-04T12:47:26.916Z,100524.98
2022-08-04T12:50:02.622Z,100518.36
2022-08-04T12:53:01.074Z,100519.94
2022-08-04T12:55:31.905Z,100518.69
2022-08-04T12:58:00.213Z,100519.84
2022-08-04T13:00:41.353Z,100518.36
2022-08-04T13:03:12.680Z,100516.87
2022-08-04T13:05:41.925Z,100516.09
2022-08-04T13:08:11.938Z,100513.85
2022-08-04T13:10:42.934Z,100513.82
2022-08-04T13:13:19.632Z,100515.45
2022-08-04T13:16:02.175Z,100517.98
2022-08-04T13:18:34.660Z,100515.02
2022-08-04T13:21:19.469Z,100512.52
2022-08-04T13:24:20.522Z,100514.08
2022-08-04T13:27:14.859Z,100506.36
2022-08-04T13:30:00.083Z,100501.25
2022-08-04T13:32:32.361Z,100499.35
2022-08-04T13:35:01.841Z,100491.88
2022-08-04T13:37:35.401Z,100495.02
2022-08-04T13:40:05.613Z,100495.05
2022-08-04T13:42:37.541Z,100493.96
2022-08-04T13:45:07.456Z,100493.52
2022-08-04T13:47:38.304Z,100491.05
2022-08-04T13:50:27.303Z,100484.46
2022-08-04T13:52:57.265Z,100484.74
2022-08-04T13:55:33.635Z,100486.33
2022-08-04T13:58:09.399Z,100482.05
2022-08-04T14:00:44.742Z,100483.51
2022-08-04T14:03:24.229Z,100478.13
2022-08-04T14:06:11.818Z,100475.02
2022-08-04T14:08:52.673Z,100470.73
2022-08-04T14:12:06.216Z,100470.82
2022-08-04T14:14:33.984Z,100468.39
2022-08-04T14:17:19.781Z,100470.98
2022-08-04T14:19:53.246Z,100469.95
2022-08-04T14:22:30.140Z,100471.41
2022-08-04T14:25:00.805Z,100470.15
2022-08-04T14:27:29.136Z,100469.98
2022-08-04T14:29:57.738Z,100463.74
2022-08-04T14:32:26.493Z,100460.42
2022-08-04T14:34:54.546Z,100464.46
2022-08-04T14:37:23.383Z,100462.10
2022-08-04T14:40:18.438Z,100459.39
2022-08-04T14:42:55.429Z,100457.19
2022-08-04T14:45:34.355Z,100451.54
2022-08-04T14:48:13.715Z,100451.54
2022-08-04T14:50:46.360Z,100454.98
2022-08-04T14:53:19.889Z,100455.56
2022-08-04T14:55:49.762Z,100445.73
2022-08-04T14:58:35.109Z,100451.90
2022-08-04T15:01:12.008Z,100448.28
2022-08-04T15:03:50.630Z,100448.65
2022-08-04T15:06:26.492Z,100444.79
2022-08-04T15:08:58.390Z,100443.36
2022-08-04T15:11:26.710Z,100440.52
2022-08-04T15:13:56.575Z,100441.20
2022-08-04T15:16:26.952Z,100444.56
2022-08-04T15:18:56.705Z,100439.54
2022-08-04T15:21:28.146Z,100436.02
2022-08-04T15:23:57.408Z,100433.09
2022-08-04T15:26:37.140Z,100430.55
2022-08-04T15:29:24.209Z,100434.44
2022-08-04T15:32:07.772Z,100433.17
2022-08-04T15:34:51.081Z,100433.47
2022-08-04T15:37:27.512Z,100433.62
2022-08-04T15:40:09.853Z,100432.94
2022-08-04T15:43:15.047Z,100436.06
2022-08-04T15:46:32.885Z,100433.68
2022-08-04T15:48:41.937Z,100435.95
2022-08-04T15:51:15.070Z,100433.13
2022-08-04T15:54:01.835Z,100433.91
2022-08-04T15:56:31.038Z,100433.98
2022-08-04T15:58:59.017Z,100436.79
2022-08-04T16:01:27.991Z,100433.33
2022-08-04T16:03:59.616Z,100433.60
2022-08-04T16:06:30.550Z,100429.34
2022-08-04T16:08:59.563Z,100430.88
2022-08-04T16:11:32.582Z,100433.40
2022-08-04T16:14:00.792Z,100424.70
2022-08-04T16:16:33.451Z,100423.25
2022-08-04T16:19:08.490Z,100425.87
2022-08-04T16:21:48.793Z,100425.77
2022-08-04T16:24:35.647Z,100424.13
2022-08-04T16:27:05.165Z,100422.75
2022-08-04T16:29:40.321Z,100420.55
2022-08-04T16:32:19.595Z,100415.72
2022-08-04T16:34:55.296Z,100417.80
2022-08-04T16:37:32.289Z,100419.01
2022-08-04T16:40:29.791Z,100418.07
2022-08-04T16:43:06.349Z,100414.61
2022-08-04T16:45:58.740Z,100413.39
2022-08-04T16:48:31.628Z,100407.94
2022-08-04T16:51:10.162Z,100407.19
2022-08-04T16:53:57.899Z,100410.42
2022-08-04T16:56:34.776Z,100412.45
2022-08-04T16:59:11.341Z,100413.14
2022-08-04T17:01:50.025Z,100410.63
2022-08-04T17:04:18.048Z,100409.14
2022-08-04T17:06:46.719Z,100409.11
2022-08-04T17:09:19.527Z,100408.36
2022-08-04T17:11:48.489Z,100410.97
2022-08-04T17:14:25.511Z,100406.30
2022-08-04T17:16:56.519Z,100406.39
2022-08-04T17:19:26.472Z,100403.48
2022-08-04T17:22:06.005Z,100405.55
2022-08-04T17:24:36.419Z,100408.77
2022-08-04T17:28:18.434Z,100407.73
2022-08-04T17:29:52.743Z,100408.14
2022-08-04T17:32:22.622Z,100411.55
2022-08-04T17:34:53.660Z,100411.38
2022-08-04T17:37:40.211Z,100413.63
2022-08-04T17:40:18.451Z,100414.54
2022-08-04T17:44:03.676Z,100414.38
2022-08-04T17:46:33.995Z,100415.29
2022-08-04T17:49:10.852Z,100412.05
2022-08-04T17:52:05.898Z,100415.04
2022-08-04T17:54:38.934Z,100416.89
2022-08-04T17:57:13.465Z,100414.80
2022-08-04T17:59:56.479Z,100416.89
2022-08-04T18:02:32.156Z,100418.20
2022-08-04T18:05:07.698Z,100417.05
2022-08-04T18:08:38.460Z,100418.50
2022-08-04T18:10:41.701Z,100417.71
2022-08-04T18:13:22.222Z,100420.05
2022-08-04T18:16:02.642Z,100421.63
2022-08-04T18:18:30.902Z,100421.69
2022-08-04T18:21:03.504Z,100425.62
2022-08-04T18:23:33.400Z,100428.25
2022-08-04T18:26:03.520Z,100427.39
2022-08-04T18:28:33.653Z,100432.22
2022-08-04T18:31:02.306Z,100428.57
2022-08-04T18:33:40.868Z,100429.72
2022-08-04T18:36:36.693Z,100430.76
2022-08-04T18:38:59.434Z,100432.31
2022-08-04T18:42:00.994Z,100433.64
2022-08-04T18:44:32.198Z,100435.90
2022-08-04T18:47:22.469Z,100437.25
2022-08-04T18:51:00.701Z,100439.28
2022-08-04T18:52:42.044Z,100439.14
2022-08-04T18:55:55.457Z,100442.97
2022-08-04T18:58:07.378Z,100441.66
2022-08-04T19:00:45.776Z,100444.06
2022-08-04T19:03:16.614Z,100451.19
2022-08-04T19:05:51.714Z,100448.30
2022-08-04T19:08:34.967Z,100449.17
2022-08-04T19:11:38.481Z,100449.66
2022-08-04T19:13:58.012Z,100449.35
2022-08-04T19:16:32.502Z,100454.52
2022-08-04T19:19:05.534Z,100449.69
2022-08-04T19:22:00.349Z,100451.40
2022-08-04T19:24:32.129Z,100452.63
2022-08-04T19:27:07.240Z,100452.64
2022-08-04T19:29:40.632Z,100452.02
2022-08-04T19:32:14.154Z,100453.54
2022-08-04T19:34:47.294Z,100453.46
2022-08-04T19:37:57.816Z,100455.00
2022-08-04T19:40:09.605Z,100455.06
2022-08-04T19:42:38.562Z,100458.14
2022-08-04T19:45:10.097Z,100454.27
2022-08-04T19:48:18.192Z,100455.91
2022-08-04T19:50:33.238Z,100454.09
2022-08-04T19:53:01.577Z,100456.07
2022-08-04T19:55:37.503Z,100456.90
2022-08-04T19:58:08.468Z,100454.73
2022-08-04T20:00:38.036Z,100455.32
2022-08-04T20:03:09.846Z,100453.25
2022-08-04T20:05:54.821Z,100456.90
2022-08-04T20:08:26.681Z,100456.00
2022-08-04T20:10:57.967Z,100454.58
2022-08-04T20:13:37.054Z,100454.94
2022-08-04T20:19:00.960Z,100455.65
2022-08-04T20:21:36.498Z,100458.17
2022-08-04T20:24:37.725Z,100464.84
2022-08-04T20:27:15.283Z,100466.05
2022-08-04T20:29:46.246Z,100471.05
2022-08-04T20:32:25.389Z,100476.88
2022-08-04T20:34:54.859Z,100477.44
2022-08-04T20:37:24.744Z,100476.09
2022-08-04T20:39:55.245Z,100475.04
2022-08-04T20:42:33.818Z,100472.58
2022-08-04T20:45:02.521Z,100473.79
2022-08-04T20:47:35.049Z,100474.95
2022-08-04T20:50:05.807Z,100469.76
2022-08-04T20:52:37.981Z,100473.52
2022-08-04T20:55:07.423Z,100474.77
2022-08-04T20:57:48.411Z,100476.27
2022-08-04T21:00:29.629Z,100471.03
2022-08-04T21:02:59.328Z,100471.38
2022-08-04T21:05:27.412Z,100469.91
2022-08-04T21:07:57.142Z,100472.89
2022-08-04T21:10:25.717Z,100473.85
2022-08-04T21:12:54.506Z,100477.25
2022-08-04T21:15:26.236Z,100480.58
2022-08-04T21:18:14.203Z,100479.13
2022-08-04T21:20:43.357Z,100479.10
2022-08-04T21:23:11.208Z,100480.15
2022-08-04T21:25:42.739Z,100481.52
2022-08-04T21:28:12.151Z,100480.45
2022-08-04T21:30:54.311Z,100479.16
2022-08-04T21:33:49.618Z,100481.65
2022-08-04T21:36:14.646Z,100481.45
2022-08-04T21:38:51.255Z,100480.45
2022-08-04T21:41:25.110Z,100478.15
2022-08-04T21:43:56.122Z,100476.61
2022-08-04T21:46:25.462Z,100477.61
2022-08-04T21:48:58.440Z,100476.75
2022-08-04T21:51:59.808Z,100480.26
2022-08-04T21:54:17.578Z,100474.58
2022-08-04T21:56:51.627Z,100473.48
2022-08-04T21:59:28.513Z,100471.80
2022-08-04T22:02:01.175Z,100475.11
2022-08-04T22:04:29.645Z,100473.29
2022-08-04T22:07:02.669Z,100471.77
2022-08-04T22:09:38.768Z,100470.04
2022-08-04T22:12:11.974Z,100472.88
2022-08-04T22:14:40.420Z,100476.92
2022-08-04T22:17:13.894Z,100477.12
2022-08-04T22:19:55.499Z,100476.14
2022-08-04T22:22:28.974Z,100474.76
2022-08-04T22:25:12.479Z,100475.17
2022-08-04T22:28:02.926Z,100474.66
2022-08-04T22:30:36.891Z,100471.86
2022-08-04T22:33:08.314Z,100472.98
2022-08-04T22:35:48.988Z,100470.52
2022-08-04T22:38:35.831Z,100466.67
2022-08-04T22:41:10.882Z,100466.04
2022-08-04T22:43:40.393Z,100465.66
2022-08-04T22:46:11.923Z,100465.96
2022-08-04T22:48:43.378Z,100467.92
2022-08-04T22:51:12.754Z,100465.00
2022-08-04T22:53:48.648Z,100465.73
2022-08-04T22:56:37.374Z,100461.30
2022-08-04T22:59:11.190Z,100463.79
2022-08-04T23:02:00.445Z,100460.81
2022-08-04T23:04:30.843Z,100460.23
2022-08-04T23:06:58.815Z,100458.79
2022-08-04T23:09:49.997Z,100452.77
2022-08-04T23:12:30.446Z,100451.29
2022-08-04T23:14:59.037Z,100448.10
2022-08-04T23:17:28.433Z,100449.45
2022-08-04T23:19:59.278Z,100445.15
2022-08-04T23:22:42.101Z,100438.90
2022-08-04T23:25:15.836Z,100441.00
2022-08-04T23:27:50.519Z,100439.83
2022-08-04T23:30:21.756Z,100438.80
2022-08-04T23:32:53.314Z,100436.02
2022-08-04T23:35:22.588Z,100434.23
2022-08-04T23:37:56.822Z,100431.88
2022-08-04T23:40:33.181Z,100431.08
2022-08-04T23:43:17.356Z,100425.48
2022-08-04T23:46:03.855Z,100427.95
2022-08-04T23:48:36.864Z,100426.37
2022-08-04T23:51:14.229Z,100423.65
2022-08-04T23:54:02.267Z,100424.23
2022-08-04T23:56:33.980Z,100419.63
2022-08-04T23:59:03.969Z,100418.64
